createdAt,value
2018-03-30T00:04:41.450Z,6.66
2018-03-30T00:10:32.139Z,7.1
2018-03-30T00:16:22.843Z,7.86
2018-03-30T00:22:13.551Z,8.64
2018-03-30T00:28:04.320Z,7.39
2018-03-30T00:33:55.015Z,8.01
2018-03-30T00:39:45.644Z,9.63
2018-03-30T00:45:36.366Z,9.27
2018-03-30T00:51:27.064Z,7.1
2018-03-30T00:57:17.782Z,5.49
2018-03-30T01:03:08.466Z,8.1
2018-03-30T01:08:59.167Z,8.68
2018-03-30T01:14:49.902Z,8.06
2018-03-30T01:20:40.579Z,7.46
2018-03-30T01:26:31.307Z,9.54
2018-03-30T01:32:21.968Z,10.62
2018-03-30T01:38:12.697Z,7.39
2018-03-30T01:44:03.411Z,11.49
2018-03-30T01:49:54.114Z,10.96
2018-03-30T01:55:44.832Z,7.66
2018-03-30T02:01:35.539Z,11.77
2018-03-30T02:07:26.248Z,9.93
2018-03-30T02:13:16.895Z,7.81
2018-03-30T02:19:07.631Z,8.43
2018-03-30T02:24:58.319Z,6.21
2018-03-30T02:30:49.013Z,7.23
2018-03-30T02:36:39.733Z,11.83
2018-03-30T02:42:30.389Z,7.66
2018-03-30T02:48:21.146Z,8.46
2018-03-30T02:54:11.851Z,7.04
2018-03-30T03:00:02.802Z,12.99
2018-03-30T03:05:53.271Z,6.24
2018-03-30T03:11:43.948Z,12.34
2018-03-30T03:17:34.639Z,14.29
2018-03-30T03:23:25.350Z,8.76
2018-03-30T03:29:16.029Z,10.46
2018-03-30T03:35:06.756Z,6.84
2018-03-30T03:40:57.466Z,12.66
2018-03-30T03:46:48.133Z,9.5
2018-03-30T03:52:38.853Z,8.02
2018-03-30T03:58:29.599Z,11.21
2018-03-30T04:04:20.327Z,13.86
2018-03-30T04:10:11.005Z,10.13
2018-03-30T04:16:01.672Z,14.73
2018-03-30T04:21:52.359Z,9.93
2018-03-30T04:27:43.135Z,7.21
2018-03-30T04:33:33.822Z,9.75
2018-03-30T04:39:24.505Z,10.12
2018-03-30T04:45:15.221Z,11.24
2018-03-30T04:51:05.949Z,9.8
2018-03-30T04:56:56.625Z,6.72
2018-03-30T05:02:47.310Z,13.02
2018-03-30T05:08:37.992Z,10.77
2018-03-30T05:14:28.727Z,12.39
2018-03-30T05:20:19.451Z,11.76
2018-03-30T05:26:10.141Z,12.65
2018-03-30T05:32:00.838Z,12.57
2018-03-30T05:37:51.521Z,18.34
2018-03-30T05:43:42.255Z,13.05
2018-03-30T05:49:32.921Z,10.13
2018-03-30T05:55:23.651Z,12.47
2018-03-30T06:01:14.321Z,14.18
2018-03-30T06:07:05.051Z,14.17
2018-03-30T06:12:55.755Z,16.9
2018-03-30T06:18:46.456Z,16.82
2018-03-30T06:24:37.162Z,17.85
2018-03-30T06:30:27.845Z,22.53
2018-03-30T06:36:18.528Z,19.55
2018-03-30T06:42:09.244Z,23.38
2018-03-30T06:47:59.949Z,16.68
2018-03-30T06:53:50.674Z,20.23
2018-03-30T06:59:41.396Z,16.96
2018-03-30T07:05:32.076Z,25.86
2018-03-30T07:11:22.760Z,19.5
2018-03-30T07:17:13.454Z,18.25
2018-03-30T07:23:04.171Z,20.33
2018-03-30T07:28:54.850Z,27.35
2018-03-30T07:34:45.569Z,28.3
2018-03-30T07:40:36.296Z,23.49
2018-03-30T07:46:26.947Z,24.15
2018-03-30T07:52:17.679Z,23.44
2018-03-30T07:58:08.342Z,15.95
2018-03-30T08:03:59.177Z,13.63
2018-03-30T08:09:49.803Z,14.08
2018-03-30T08:15:40.471Z,19.65
2018-03-30T08:21:31.209Z,12.15
2018-03-30T08:27:21.886Z,20.29
2018-03-30T08:33:12.610Z,12.32
2018-03-30T08:39:03.338Z,18.94
2018-03-30T08:44:53.989Z,9.94
2018-03-30T08:50:44.721Z,16.8
2018-03-30T08:56:35.478Z,13.27
2018-03-30T09:02:26.132Z,16.84
2018-03-30T09:08:16.863Z,23.27
2018-03-30T09:14:07.512Z,25.51
2018-03-30T09:19:58.248Z,15.33
2018-03-30T09:25:49.049Z,20.88
2018-03-30T09:31:39.668Z,22.52
2018-03-30T09:37:30.381Z,14.24
2018-03-30T09:43:21.078Z,17.03
2018-03-30T09:49:11.819Z,15.23
2018-03-30T09:55:02.539Z,12.32
2018-03-30T10:00:53.210Z,12.82
2018-03-30T10:06:43.922Z,13.61
2018-03-30T10:12:34.653Z,12.87
2018-03-30T10:18:25.399Z,8.18
2018-03-30T10:24:16.053Z,18.5
2018-03-30T10:30:06.774Z,10.99
2018-03-30T10:35:57.517Z,11.34
2018-03-30T10:41:48.222Z,13.01
2018-03-30T10:47:38.975Z,12.52
2018-03-30T10:53:29.631Z,11.59
2018-03-30T10:59:20.387Z,9.95
2018-03-30T11:05:11.155Z,11.86
2018-03-30T11:11:01.811Z,9.05
2018-03-30T11:16:52.560Z,10.91
2018-03-30T11:22:43.274Z,7.67
2018-03-30T11:28:33.966Z,12.52
2018-03-30T11:34:24.737Z,9.55
2018-03-30T11:40:15.475Z,9.64
2018-03-30T11:46:06.166Z,9.55
2018-03-30T11:51:56.893Z,11.64
2018-03-30T11:57:47.632Z,10.53
2018-03-30T12:03:38.341Z,15.58
2018-03-30T12:09:29.026Z,10.76
2018-03-30T12:15:19.785Z,9.36
2018-03-30T12:21:10.469Z,7.84
2018-03-30T12:27:01.198Z,10.53
2018-03-30T12:32:51.946Z,9.76
2018-03-30T12:38:42.704Z,7.99
2018-03-30T12:44:33.357Z,10.32
2018-03-30T12:50:24.077Z,14.1
2018-03-30T12:56:14.807Z,14.71
2018-03-30T13:02:05.581Z,8.87
2018-03-30T13:07:56.269Z,6.1
2018-03-30T13:13:46.994Z,12.66
2018-03-30T13:19:37.699Z,7.25
2018-03-30T13:25:28.442Z,8.9
2018-03-30T13:31:19.163Z,8.54
2018-03-30T13:37:09.894Z,10.98
2018-03-30T13:43:00.619Z,10.92
2018-03-30T13:48:51.375Z,8.22
2018-03-30T13:54:42.023Z,10.02
2018-03-30T14:00:32.726Z,10.48
2018-03-30T14:06:23.496Z,7.3
2018-03-30T14:12:14.195Z,5.75
2018-03-30T14:18:04.914Z,9.53
2018-03-30T14:23:55.662Z,7.45
2018-03-30T14:29:46.369Z,4.85
2018-03-30T14:35:37.073Z,10.14
2018-03-30T14:41:27.831Z,7.71
2018-03-30T14:47:18.550Z,7.97
2018-03-30T14:53:09.335Z,5.81
2018-03-30T14:59:00.017Z,5.14
2018-03-30T15:04:50.759Z,8.48
2018-03-30T15:10:41.505Z,6.61
2018-03-30T15:16:32.211Z,7.39
2018-03-30T15:22:22.956Z,7.89
2018-03-30T15:28:13.659Z,6.6
2018-03-30T15:34:04.408Z,5.75
2018-03-30T15:39:55.183Z,5.77
2018-03-30T15:45:45.856Z,5.56
2018-03-30T15:51:36.582Z,8.3
2018-03-30T15:57:27.356Z,10.55
2018-03-30T16:03:18.032Z,12.39
2018-03-30T16:09:08.769Z,10.35
2018-03-30T16:14:59.453Z,9.48
2018-03-30T16:20:50.214Z,7.89
2018-03-30T16:26:40.900Z,8.52
2018-03-30T16:32:31.622Z,9.05
2018-03-30T16:38:22.376Z,7.97
2018-03-30T16:44:13.100Z,7.34
2018-03-30T16:50:03.787Z,8.09
2018-03-30T16:55:54.506Z,8.16
2018-03-30T17:01:45.202Z,8.19
2018-03-30T17:07:35.919Z,8.95
2018-03-30T17:13:26.661Z,7.41
2018-03-30T17:19:17.384Z,10.95
2018-03-30T17:25:08.122Z,9.38
2018-03-30T17:30:58.781Z,5.83
2018-03-30T17:36:49.517Z,8.68
2018-03-30T17:42:40.219Z,9.82
2018-03-30T17:48:31.007Z,7.97
2018-03-30T17:54:21.743Z,5.32
2018-03-30T18:00:12.473Z,9.4
2018-03-30T18:06:03.182Z,6.93
2018-03-30T18:11:53.851Z,7.67
2018-03-30T18:17:44.519Z,7.76
2018-03-30T18:23:35.261Z,8.75
2018-03-30T18:29:25.967Z,6.27
2018-03-30T18:35:16.697Z,7.99
2018-03-30T18:41:07.430Z,8.02
2018-03-30T18:46:58.139Z,4.84
2018-03-30T18:52:48.805Z,5.63
2018-03-30T18:58:39.617Z,9.52
2018-03-30T19:04:30.255Z,5.38
2018-03-30T19:10:20.972Z,7.19
2018-03-30T19:16:11.670Z,6.11
2018-03-30T19:22:02.365Z,5.15
2018-03-30T19:27:53.043Z,7.03
2018-03-30T19:33:43.783Z,6.44
2018-03-30T19:39:34.496Z,4.44
2018-03-30T19:45:25.173Z,4.78
2018-03-30T19:51:15.881Z,3.88
2018-03-30T19:57:06.630Z,7.44
2018-03-30T20:02:57.361Z,5.34
2018-03-30T20:08:48.021Z,3.87
2018-03-30T20:14:38.718Z,5.21
2018-03-30T20:20:29.525Z,9.6
2018-03-30T20:26:20.158Z,5.36
2018-03-30T20:32:10.890Z,5.62
2018-03-30T20:38:01.620Z,4.62
2018-03-30T20:43:52.268Z,4.35
2018-03-30T20:49:43.002Z,4.29
2018-03-30T20:55:33.682Z,3.3
2018-03-30T21:01:24.404Z,3.76
2018-03-30T21:07:15.179Z,3.64
2018-03-30T21:13:05.810Z,5.9
2018-03-30T21:18:56.539Z,4.45
2018-03-30T21:24:47.224Z,4.8
2018-03-30T21:30:37.923Z,2.61
2018-03-30T21:36:28.627Z,3.18
2018-03-30T21:42:19.337Z,6.25
2018-03-30T21:48:10.062Z,4.03
2018-03-30T21:54:00.749Z,5.94
2018-03-30T21:59:51.452Z,5.42
2018-03-30T22:05:42.178Z,4.04
2018-03-30T22:11:32.929Z,6.19
2018-03-30T22:17:23.609Z,14.48
2018-03-30T22:23:14.283Z,5.18
2018-03-30T22:29:05.055Z,2.64
2018-03-30T22:34:55.723Z,6.4
2018-03-30T22:40:46.411Z,4.73
2018-03-30T22:46:37.107Z,4.41
2018-03-30T22:52:27.911Z,3.98
2018-03-30T22:58:18.561Z,5.49
2018-03-30T23:04:09.231Z,8.61
2018-03-30T23:09:59.941Z,5.54
2018-03-30T23:15:50.663Z,6.69
2018-03-30T23:21:41.440Z,9.14
2018-03-30T23:27:32.094Z,6.62
2018-03-30T23:33:22.834Z,6.61
2018-03-30T23:39:13.482Z,14.54
2018-03-30T23:45:04.203Z,15.25
2018-03-30T23:50:54.935Z,7.3
2018-03-30T23:56:45.650Z,7
